クライストチャーチ の空港の天気 - METARとTAF

クライストチャーチ国際空港 ( NZCH / CHC ) - ニュージーランド クライストチャーチ
飛行場実況気象(Metar)
観測時間02/18 12:00 NZDT (02/17 23:00 UTC)
風向・風速北北東 3m/s
視程10km以上
天気現象
なし
気温23℃
湿度47%
気圧1011hPa
METARNZCH 172300Z AUTO 02005KT 280V100 9999 NCD 23/11 Q1011 NOSIG
過去の天気等 Google飛行場航空写真 Wunderground天気予報

過去48時間のMETAR

飛行場予報(TAF)
発表時間: 2/18 06:02 NZDT (2/17 17:02 UTC)
予報対象時間: 18日7時 NZDT ~ 19日7時 NZDT
風向・風速不定 1m/s
視程10km以上
なし
18日13時 NZDT ~ 18日15時 NZDT に徐々に
風向・風速東北東 8m/s
18日19時 NZDT ~ 18日21時 NZDT に徐々に
風向・風速西北西 3m/s
TAF NZCH 171702Z 1718/1818 VRB02KT CAVOK
BECMG 1800/1802 06015KT
BECMG 1806/1808 30005KT